sensor_id;sensor_type;location;lat;lon;timestamp;pressure;altitude;pressure_sealevel;temperature;humidity
11347;BME280;5728;42.722;23.258;2023-03-26T00:02:20;94272.38;;;9.74;85.84
11347;BME280;5728;42.722;23.258;2023-03-26T00:04:47;94272.44;;;9.70;85.19
11347;BME280;5728;42.722;23.258;2023-03-26T00:07:15;94282.78;;;9.70;85.17
11347;BME280;5728;42.722;23.258;2023-03-26T00:09:42;94281.09;;;9.69;86.20
11347;BME280;5728;42.722;23.258;2023-03-26T00:12:09;94285.31;;;9.74;85.93
11347;BME280;5728;42.722;23.258;2023-03-26T00:14:35;94275.78;;;9.75;85.12
11347;BME280;5728;42.722;23.258;2023-03-26T00:17:02;94266.94;;;9.86;84.58
11347;BME280;5728;42.722;23.258;2023-03-26T00:19:31;94266.19;;;9.80;85.07
11347;BME280;5728;42.722;23.258;2023-03-26T00:21:58;94262.78;;;9.78;85.38
11347;BME280;5728;42.722;23.258;2023-03-26T00:24:24;94259.50;;;9.70;85.43
11347;BME280;5728;42.722;23.258;2023-03-26T00:26:54;94261.09;;;9.77;84.98
11347;BME280;5728;42.722;23.258;2023-03-26T00:29:20;94268.41;;;9.56;85.43
11347;BME280;5728;42.722;23.258;2023-03-26T00:31:49;94277.84;;;9.59;86.27
11347;BME280;5728;42.722;23.258;2023-03-26T00:34:16;94265.03;;;9.53;86.13
11347;BME280;5728;42.722;23.258;2023-03-26T00:36:44;94267.56;;;9.56;86.52
11347;BME280;5728;42.722;23.258;2023-03-26T00:39:12;94275.47;;;9.48;86.74
11347;BME280;5728;42.722;23.258;2023-03-26T00:41:39;94261.81;;;9.40;86.88
11347;BME280;5728;42.722;23.258;2023-03-26T00:44:08;94270.53;;;9.35;86.95
11347;BME280;5728;42.722;23.258;2023-03-26T00:46:35;94268.91;;;9.29;87.64
11347;BME280;5728;42.722;23.258;2023-03-26T00:49:02;94263.91;;;9.20;88.05
11347;BME280;5728;42.722;23.258;2023-03-26T00:51:29;94257.78;;;9.26;87.59
11347;BME280;5728;42.722;23.258;2023-03-26T00:53:59;94265.47;;;9.30;87.11
11347;BME280;5728;42.722;23.258;2023-03-26T00:56:25;94265.81;;;9.56;86.05
11347;BME280;5728;42.722;23.258;2023-03-26T00:58:52;94258.69;;;9.68;85.26
11347;BME280;5728;42.722;23.258;2023-03-26T01:01:22;94250.03;;;9.69;85.34
11347;BME280;5728;42.722;23.258;2023-03-26T01:03:52;94262.28;;;9.60;85.15
11347;BME280;5728;42.722;23.258;2023-03-26T01:06:25;94261.28;;;9.68;84.93
11347;BME280;5728;42.722;23.258;2023-03-26T01:09:02;94266.50;;;9.64;84.71
11347;BME280;5728;42.722;23.258;2023-03-26T01:11:32;94264.22;;;9.49;84.95
11347;BME280;5728;42.722;23.258;2023-03-26T01:14:03;94277.09;;;9.52;84.91
11347;BME280;5728;42.722;23.258;2023-03-26T01:16:34;94278.88;;;9.50;85.03
11347;BME280;5728;42.722;23.258;2023-03-26T01:19:04;94283.13;;;9.53;85.16
11347;BME280;5728;42.722;23.258;2023-03-26T01:21:35;94280.44;;;9.59;84.08
11347;BME280;5728;42.722;23.258;2023-03-26T01:24:05;94279.38;;;9.68;83.93
11347;BME280;5728;42.722;23.258;2023-03-26T01:26:47;94285.47;;;9.67;83.49
11347;BME280;5728;42.722;23.258;2023-03-26T01:29:21;94297.47;;;9.71;83.83
11347;BME280;5728;42.722;23.258;2023-03-26T01:31:55;94294.97;;;9.64;84.55
11347;BME280;5728;42.722;23.258;2023-03-26T01:34:30;94295.94;;;9.60;85.12
11347;BME280;5728;42.722;23.258;2023-03-26T01:37:07;94287.25;;;9.63;84.69
11347;BME280;5728;42.722;23.258;2023-03-26T01:39:43;94285.69;;;9.54;85.54
11347;BME280;5728;42.722;23.258;2023-03-26T01:42:20;94270.03;;;9.60;85.36
11347;BME280;5728;42.722;23.258;2023-03-26T01:44:54;94286.44;;;9.61;85.57
11347;BME280;5728;42.722;23.258;2023-03-26T01:47:23;94294.22;;;9.59;85.77
11347;BME280;5728;42.722;23.258;2023-03-26T01:49:50;94297.66;;;9.61;85.75
11347;BME280;5728;42.722;23.258;2023-03-26T01:52:19;94291.78;;;9.52;86.81
11347;BME280;5728;42.722;23.258;2023-03-26T01:54:51;94291.19;;;9.38;87.07
11347;BME280;5728;42.722;23.258;2023-03-26T01:57:25;94294.16;;;9.62;87.58
11347;BME280;5728;42.722;23.258;2023-03-26T02:00:09;94293.63;;;9.45;87.32
11347;BME280;5728;42.722;23.258;2023-03-26T02:02:45;94291.16;;;9.39;87.65
11347;BME280;5728;42.722;23.258;2023-03-26T02:05:19;94308.44;;;9.39;88.49
11347;BME280;5728;42.722;23.258;2023-03-26T02:07:50;94292.00;;;9.40;88.53
11347;BME280;5728;42.722;23.258;2023-03-26T02:10:25;94298.81;;;9.45;88.08
11347;BME280;5728;42.722;23.258;2023-03-26T02:12:54;94294.50;;;9.44;87.55
11347;BME280;5728;42.722;23.258;2023-03-26T02:15:21;94294.41;;;9.50;87.25
11347;BME280;5728;42.722;23.258;2023-03-26T02:17:47;94302.16;;;9.50;87.70
11347;BME280;5728;42.722;23.258;2023-03-26T02:20:17;94294.28;;;9.56;87.74
11347;BME280;5728;42.722;23.258;2023-03-26T02:22:45;94297.47;;;9.71;87.11
11347;BME280;5728;42.722;23.258;2023-03-26T02:25:14;94287.22;;;9.64;86.97
11347;BME280;5728;42.722;23.258;2023-03-26T02:27:43;94300.28;;;10.00;85.96
11347;BME280;5728;42.722;23.258;2023-03-26T02:30:13;94298.97;;;9.81;86.81
11347;BME280;5728;42.722;23.258;2023-03-26T02:32:40;94304.34;;;9.72;87.02
11347;BME280;5728;42.722;23.258;2023-03-26T02:35:08;94296.88;;;9.56;87.42
11347;BME280;5728;42.722;23.258;2023-03-26T02:37:35;94303.31;;;9.36;88.74
11347;BME280;5728;42.722;23.258;2023-03-26T02:40:03;94301.50;;;9.39;88.85
11347;BME280;5728;42.722;23.258;2023-03-26T02:42:34;94303.31;;;9.34;89.08
11347;BME280;5728;42.722;23.258;2023-03-26T02:45:03;94303.31;;;9.34;89.25
11347;BME280;5728;42.722;23.258;2023-03-26T02:47:30;94325.97;;;9.23;88.93
11347;BME280;5728;42.722;23.258;2023-03-26T02:49:58;94322.72;;;9.09;90.34
11347;BME280;5728;42.722;23.258;2023-03-26T02:52:26;94313.47;;;8.97;91.26
11347;BME280;5728;42.722;23.258;2023-03-26T02:54:52;94314.78;;;8.71;91.87
11347;BME280;5728;42.722;23.258;2023-03-26T02:57:20;94318.19;;;8.71;92.80
11347;BME280;5728;42.722;23.258;2023-03-26T02:59:46;94327.53;;;8.80;91.32
11347;BME280;5728;42.722;23.258;2023-03-26T03:02:16;94328.53;;;8.73;91.90
11347;BME280;5728;42.722;23.258;2023-03-26T03:04:43;94332.97;;;8.63;92.34
11347;BME280;5728;42.722;23.258;2023-03-26T03:07:10;94327.03;;;8.57;92.29
11347;BME280;5728;42.722;23.258;2023-03-26T03:09:38;94327.94;;;8.56;92.57
11347;BME280;5728;42.722;23.258;2023-03-26T03:12:05;94323.66;;;8.52;92.49
11347;BME280;5728;42.722;23.258;2023-03-26T03:14:32;94332.19;;;8.57;92.37
11347;BME280;5728;42.722;23.258;2023-03-26T03:16:59;94332.13;;;8.63;92.74
11347;BME280;5728;42.722;23.258;2023-03-26T03:19:27;94334.00;;;8.52;91.90
11347;BME280;5728;42.722;23.258;2023-03-26T03:21:53;94344.00;;;8.76;91.32
11347;BME280;5728;42.722;23.258;2023-03-26T03:24:20;94343.16;;;8.72;90.66
11347;BME280;5728;42.722;23.258;2023-03-26T03:26:48;94343.25;;;8.68;90.16
11347;BME280;5728;42.722;23.258;2023-03-26T03:29:19;94341.63;;;8.61;90.58
11347;BME280;5728;42.722;23.258;2023-03-26T03:31:46;94359.72;;;8.61;91.03
11347;BME280;5728;42.722;23.258;2023-03-26T03:34:13;94338.00;;;8.72;91.28
11347;BME280;5728;42.722;23.258;2023-03-26T03:36:41;94356.00;;;8.77;90.38
11347;BME280;5728;42.722;23.258;2023-03-26T03:39:12;94337.25;;;8.66;90.56
11347;BME280;5728;42.722;23.258;2023-03-26T03:41:39;94326.91;;;8.66;90.35
11347;BME280;5728;42.722;23.258;2023-03-26T03:44:06;94337.38;;;8.57;91.50
11347;BME280;5728;42.722;23.258;2023-03-26T03:46:33;94333.78;;;8.67;91.05
11347;BME280;5728;42.722;23.258;2023-03-26T03:49:01;94340.75;;;8.62;91.29
11347;BME280;5728;42.722;23.258;2023-03-26T03:51:27;94344.28;;;8.55;91.35
11347;BME280;5728;42.722;23.258;2023-03-26T03:53:55;94346.63;;;8.71;90.72
11347;BME280;5728;42.722;23.258;2023-03-26T03:56:22;94358.63;;;8.75;91.01
11347;BME280;5728;42.722;23.258;2023-03-26T03:58:50;94351.97;;;8.59;91.78
11347;BME280;5728;42.722;23.258;2023-03-26T04:01:17;94353.88;;;8.48;92.12
11347;BME280;5728;42.722;23.258;2023-03-26T04:03:47;94366.63;;;8.59;91.92
11347;BME280;5728;42.722;23.258;2023-03-26T04:06:14;94352.06;;;8.55;91.96
11347;BME280;5728;42.722;23.258;2023-03-26T04:08:43;94363.09;;;8.66;91.30
11347;BME280;5728;42.722;23.258;2023-03-26T04:11:11;94373.47;;;8.63;91.59
11347;BME280;5728;42.722;23.258;2023-03-26T04:13:38;94372.75;;;8.52;92.22
11347;BME280;5728;42.722;23.258;2023-03-26T04:16:05;94385.47;;;8.67;91.84
11347;BME280;5728;42.722;23.258;2023-03-26T04:18:32;94390.50;;;8.76;91.47
11347;BME280;5728;42.722;23.258;2023-03-26T04:20:59;94399.06;;;8.81;91.14
11347;BME280;5728;42.722;23.258;2023-03-26T04:23:27;94393.31;;;8.61;91.46
11347;BME280;5728;42.722;23.258;2023-03-26T04:25:55;94412.03;;;8.76;91.63
11347;BME280;5728;42.722;23.258;2023-03-26T04:28:28;94413.94;;;8.65;91.76
11347;BME280;5728;42.722;23.258;2023-03-26T04:30:57;94419.09;;;8.64;91.44
11347;BME280;5728;42.722;23.258;2023-03-26T04:33:27;94412.19;;;8.64;91.62
11347;BME280;5728;42.722;23.258;2023-03-26T04:35:53;94412.19;;;8.66;91.48
11347;BME280;5728;42.722;23.258;2023-03-26T04:38:26;94444.16;;;8.59;90.58
11347;BME280;5728;42.722;23.258;2023-03-26T04:40:53;94422.44;;;8.73;90.73
11347;BME280;5728;42.722;23.258;2023-03-26T04:43:26;94429.28;;;8.76;89.90
11347;BME280;5728;42.722;23.258;2023-03-26T04:45:53;94436.91;;;8.85;89.33
11347;BME280;5728;42.722;23.258;2023-03-26T04:48:20;94438.50;;;8.92;89.33
11347;BME280;5728;42.722;23.258;2023-03-26T04:50:48;94433.44;;;8.86;88.37
11347;BME280;5728;42.722;23.258;2023-03-26T04:53:16;94434.28;;;8.88;88.48
11347;BME280;5728;42.722;23.258;2023-03-26T04:55:48;94441.31;;;8.77;87.93
11347;BME280;5728;42.722;23.258;2023-03-26T04:58:16;94444.75;;;8.77;87.75
11347;BME280;5728;42.722;23.258;2023-03-26T05:00:44;94438.69;;;8.80;87.56
11347;BME280;5728;42.722;23.258;2023-03-26T05:03:12;94438.50;;;8.92;87.48
11347;BME280;5728;42.722;23.258;2023-03-26T05:05:40;94437.38;;;9.11;87.16
11347;BME280;5728;42.722;23.258;2023-03-26T05:08:06;94448.50;;;9.16;86.65
11347;BME280;5728;42.722;23.258;2023-03-26T05:10:33;94461.41;;;9.18;86.54
11347;BME280;5728;42.722;23.258;2023-03-26T05:13:01;94472.66;;;9.15;86.05
11347;BME280;5728;42.722;23.258;2023-03-26T05:15:28;94463.91;;;9.22;87.80
11347;BME280;5728;42.722;23.258;2023-03-26T05:17:56;94457.13;;;9.15;87.06
11347;BME280;5728;42.722;23.258;2023-03-26T05:20:25;94470.53;;;8.82;89.13
11347;BME280;5728;42.722;23.258;2023-03-26T05:22:52;94464.25;;;9.01;89.77
11347;BME280;5728;42.722;23.258;2023-03-26T05:25:19;94478.13;;;8.94;90.23
11347;BME280;5728;42.722;23.258;2023-03-26T05:27:46;94476.19;;;9.11;88.92
11347;BME280;5728;42.722;23.258;2023-03-26T05:30:15;94474.47;;;9.10;88.44
11347;BME280;5728;42.722;23.258;2023-03-26T05:32:42;94470.94;;;9.14;89.09
11347;BME280;5728;42.722;23.258;2023-03-26T05:35:11;94473.44;;;9.20;88.16
11347;BME280;5728;42.722;23.258;2023-03-26T05:37:41;94473.38;;;9.26;88.32
11347;BME280;5728;42.722;23.258;2023-03-26T05:40:09;94465.59;;;9.26;89.93
11347;BME280;5728;42.722;23.258;2023-03-26T05:42:38;94475.88;;;9.29;89.17
11347;BME280;5728;42.722;23.258;2023-03-26T05:45:06;94469.31;;;9.62;87.93
11347;BME280;5728;42.722;23.258;2023-03-26T05:47:34;94476.13;;;9.68;88.51
11347;BME280;5728;42.722;23.258;2023-03-26T05:50:00;94479.66;;;9.62;85.16
11347;BME280;5728;42.722;23.258;2023-03-26T05:52:29;94491.81;;;9.58;86.47
11347;BME280;5728;42.722;23.258;2023-03-26T05:54:55;94485.34;;;9.84;86.65
11347;BME280;5728;42.722;23.258;2023-03-26T05:57:22;94469.50;;;10.02;82.71
11347;BME280;5728;42.722;23.258;2023-03-26T05:59:52;94479.91;;;9.99;83.06
11347;BME280;5728;42.722;23.258;2023-03-26T06:02:19;94472.91;;;10.04;81.44
11347;BME280;5728;42.722;23.258;2023-03-26T06:04:46;94475.34;;;10.14;82.40
11347;BME280;5728;42.722;23.258;2023-03-26T06:07:13;94471.09;;;10.09;81.50
11347;BME280;5728;42.722;23.258;2023-03-26T06:09:42;94475.91;;;9.81;81.81
11347;BME280;5728;42.722;23.258;2023-03-26T06:12:10;94476.13;;;10.19;81.21
11347;BME280;5728;42.722;23.258;2023-03-26T06:14:37;94477.94;;;10.13;80.68
11347;BME280;5728;42.722;23.258;2023-03-26T06:17:04;94469.13;;;10.23;80.29
11347;BME280;5728;42.722;23.258;2023-03-26T06:19:30;94476.09;;;10.64;79.50
11347;BME280;5728;42.722;23.258;2023-03-26T06:21:57;94468.84;;;10.79;77.79
11347;BME280;5728;42.722;23.258;2023-03-26T06:24:24;94479.50;;;11.06;75.64
11347;BME280;5728;42.722;23.258;2023-03-26T06:26:54;94481.91;;;11.15;76.06
11347;BME280;5728;42.722;23.258;2023-03-26T06:29:20;94462.09;;;10.71;75.67
11347;BME280;5728;42.722;23.258;2023-03-26T06:31:47;94472.47;;;11.11;75.28
11347;BME280;5728;42.722;23.258;2023-03-26T06:34:14;94461.41;;;11.03;74.67
11347;BME280;5728;42.722;23.258;2023-03-26T06:36:41;94470.22;;;11.34;73.49
11347;BME280;5728;42.722;23.258;2023-03-26T06:39:07;94467.97;;;11.19;73.21
11347;BME280;5728;42.722;23.258;2023-03-26T06:41:34;94475.63;;;11.25;72.82
11347;BME280;5728;42.722;23.258;2023-03-26T06:44:03;94471.69;;;11.44;72.79
11347;BME280;5728;42.722;23.258;2023-03-26T06:46:29;94465.88;;;11.34;71.75
11347;BME280;5728;42.722;23.258;2023-03-26T06:48:56;94482.91;;;11.08;72.32
11347;BME280;5728;42.722;23.258;2023-03-26T06:51:23;94491.94;;;11.30;71.96
11347;BME280;5728;42.722;23.258;2023-03-26T06:53:50;94488.78;;;11.17;71.55
11347;BME280;5728;42.722;23.258;2023-03-26T06:56:17;94492.06;;;11.24;71.28
11347;BME280;5728;42.722;23.258;2023-03-26T06:58:44;94496.84;;;11.80;69.50
11347;BME280;5728;42.722;23.258;2023-03-26T07:01:12;94487.06;;;11.53;70.47
11347;BME280;5728;42.722;23.258;2023-03-26T07:03:38;94489.06;;;11.42;70.62
11347;BME280;5728;42.722;23.258;2023-03-26T07:06:06;94489.69;;;11.88;69.49
11347;BME280;5728;42.722;23.258;2023-03-26T07:08:33;94493.50;;;12.09;68.25
11347;BME280;5728;42.722;23.258;2023-03-26T07:11:00;94519.56;;;11.71;68.44
11347;BME280;5728;42.722;23.258;2023-03-26T07:13:26;94481.81;;;11.91;68.19
11347;BME280;5728;42.722;23.258;2023-03-26T07:15:53;94487.88;;;12.26;66.57
11347;BME280;5728;42.722;23.258;2023-03-26T07:18:22;94476.97;;;12.11;66.86
11347;BME280;5728;42.722;23.258;2023-03-26T07:20:50;94479.03;;;12.31;66.05
11347;BME280;5728;42.722;23.258;2023-03-26T07:23:17;94471.03;;;12.39;66.17
11347;BME280;5728;42.722;23.258;2023-03-26T07:25:45;94469.50;;;12.32;66.53
11347;BME280;5728;42.722;23.258;2023-03-26T07:28:21;94462.28;;;12.73;65.99
11347;BME280;5728;42.722;23.258;2023-03-26T07:30:58;94465.25;;;12.89;64.00
11347;BME280;5728;42.722;23.258;2023-03-26T07:33:33;94457.81;;;12.77;63.79
11347;BME280;5728;42.722;23.258;2023-03-26T07:36:10;94459.44;;;12.81;64.34
11347;BME280;5728;42.722;23.258;2023-03-26T07:38:50;94468.78;;;13.17;63.52
11347;BME280;5728;42.722;23.258;2023-03-26T07:41:24;94465.94;;;13.25;62.49
11347;BME280;5728;42.722;23.258;2023-03-26T07:44:07;94464.88;;;13.86;61.32
11347;BME280;5728;42.722;23.258;2023-03-26T07:46:37;94466.41;;;12.79;62.33
11347;BME280;5728;42.722;23.258;2023-03-26T07:49:10;94470.56;;;12.86;63.43
11347;BME280;5728;42.722;23.258;2023-03-26T07:51:38;94469.78;;;13.13;63.30
11347;BME280;5728;42.722;23.258;2023-03-26T07:54:07;94456.88;;;13.38;61.00
11347;BME280;5728;42.722;23.258;2023-03-26T07:56:37;94464.97;;;13.29;60.08
11347;BME280;5728;42.722;23.258;2023-03-26T07:59:14;94453.63;;;13.31;60.95
11347;BME280;5728;42.722;23.258;2023-03-26T08:01:53;94462.13;;;12.78;58.24
11347;BME280;5728;42.722;23.258;2023-03-26T08:04:35;94449.13;;;12.78;58.83
11347;BME280;5728;42.722;23.258;2023-03-26T08:07:10;94455.78;;;13.45;58.13
11347;BME280;5728;42.722;23.258;2023-03-26T08:10:00;94449.75;;;13.71;54.43
11347;BME280;5728;42.722;23.258;2023-03-26T08:12:36;94463.91;;;13.34;56.42
11347;BME280;5728;42.722;23.258;2023-03-26T08:15:11;94459.38;;;13.41;57.06
11347;BME280;5728;42.722;23.258;2023-03-26T08:17:46;94450.72;;;13.40;57.05
11347;BME280;5728;42.722;23.258;2023-03-26T08:20:27;94458.03;;;13.56;54.16
11347;BME280;5728;42.722;23.258;2023-03-26T08:23:02;94456.25;;;13.58;55.19
11347;BME280;5728;42.722;23.258;2023-03-26T08:25:33;94463.59;;;13.45;55.36
11347;BME280;5728;42.722;23.258;2023-03-26T08:28:09;94470.03;;;14.14;55.00
11347;BME280;5728;42.722;23.258;2023-03-26T08:30:41;94462.25;;;14.12;51.62
11347;BME280;5728;42.722;23.258;2023-03-26T08:33:12;94470.03;;;14.40;54.05
11347;BME280;5728;42.722;23.258;2023-03-26T08:35:42;94460.38;;;14.16;54.01
11347;BME280;5728;42.722;23.258;2023-03-26T08:38:10;94471.50;;;13.96;52.71
11347;BME280;5728;42.722;23.258;2023-03-26T08:47:09;94462.03;;;14.18;52.99
11347;BME280;5728;42.722;23.258;2023-03-26T08:50:02;94460.69;;;14.81;51.09
11347;BME280;5728;42.722;23.258;2023-03-26T08:53:07;94473.16;;;14.49;50.10
11347;BME280;5728;42.722;23.258;2023-03-26T08:55:42;94470.78;;;14.66;49.27
11347;BME280;5728;42.722;23.258;2023-03-26T08:58:48;94468.31;;;14.87;48.78
11347;BME280;5728;42.722;23.258;2023-03-26T09:04:45;94468.31;;;14.87;49.62
11347;BME280;5728;42.722;23.258;2023-03-26T09:07:35;94461.16;;;15.81;49.03
11347;BME280;5728;42.722;23.258;2023-03-26T09:10:23;94446.03;;;15.68;45.44
11347;BME280;5728;42.722;23.258;2023-03-26T09:16:13;94448.91;;;16.04;45.73
11347;BME280;5728;42.722;23.258;2023-03-26T09:28:47;94425.34;;;17.40;41.97
11347;BME280;5728;42.722;23.258;2023-03-26T09:31:44;94434.81;;;17.80;41.88
11347;BME280;5728;42.722;23.258;2023-03-26T09:34:29;94432.53;;;16.61;41.30
11347;BME280;5728;42.722;23.258;2023-03-26T09:37:13;94443.31;;;16.33;42.34
11347;BME280;5728;42.722;23.258;2023-03-26T09:39:55;94427.56;;;16.93;40.40
11347;BME280;5728;42.722;23.258;2023-03-26T09:42:36;94427.69;;;17.46;39.64
11347;BME280;5728;42.722;23.258;2023-03-26T09:45:30;94433.34;;;18.27;39.26
11347;BME280;5728;42.722;23.258;2023-03-26T09:51:16;94421.84;;;16.05;42.92
11347;BME280;5728;42.722;23.258;2023-03-26T09:53:57;94425.66;;;16.18;42.68
11347;BME280;5728;42.722;23.258;2023-03-26T09:56:37;94413.22;;;16.63;41.88
11347;BME280;5728;42.722;23.258;2023-03-26T09:59:37;94434.47;;;16.94;40.07
11347;BME280;5728;42.722;23.258;2023-03-26T10:02:37;94397.53;;;16.03;41.34
11347;BME280;5728;42.722;23.258;2023-03-26T10:05:26;94394.25;;;16.18;41.48
11347;BME280;5728;42.722;23.258;2023-03-26T10:08:14;94382.72;;;16.99;39.12
11347;BME280;5728;42.722;23.258;2023-03-26T10:10:51;94395.75;;;16.82;39.45
11347;BME280;5728;42.722;23.258;2023-03-26T10:13:27;94383.38;;;17.04;39.05
11347;BME280;5728;42.722;23.258;2023-03-26T10:16:11;94370.91;;;17.28;37.70
11347;BME280;5728;42.722;23.258;2023-03-26T10:18:54;94374.94;;;16.61;39.01
11347;BME280;5728;42.722;23.258;2023-03-26T10:21:32;94365.81;;;17.97;38.81
11347;BME280;5728;42.722;23.258;2023-03-26T10:24:12;94391.50;;;17.36;37.68
11347;BME280;5728;42.722;23.258;2023-03-26T10:26:56;94369.13;;;17.29;37.75
11347;BME280;5728;42.722;23.258;2023-03-26T10:29:56;94357.69;;;17.84;36.83
11347;BME280;5728;42.722;23.258;2023-03-26T10:32:30;94353.31;;;17.49;35.71
11347;BME280;5728;42.722;23.258;2023-03-26T10:35:18;94348.25;;;18.31;35.06
11347;BME280;5728;42.722;23.258;2023-03-26T10:37:59;94350.97;;;18.47;34.41
11347;BME280;5728;42.722;23.258;2023-03-26T10:40:30;94359.22;;;17.71;35.34
11347;BME280;5728;42.722;23.258;2023-03-26T10:43:28;94350.19;;;16.86;35.54
11347;BME280;5728;42.722;23.258;2023-03-26T10:46:31;94341.63;;;17.37;34.77
11347;BME280;5728;42.722;23.258;2023-03-26T10:49:26;94340.50;;;17.43;34.92
11347;BME280;5728;42.722;23.258;2023-03-26T10:52:01;94327.47;;;17.94;33.06
11347;BME280;5728;42.722;23.258;2023-03-26T10:54:36;94339.63;;;18.29;32.14
11347;BME280;5728;42.722;23.258;2023-03-26T10:57:11;94333.69;;;18.09;32.39
11347;BME280;5728;42.722;23.258;2023-03-26T10:59:43;94341.94;;;18.68;31.31
11347;BME280;5728;42.722;23.258;2023-03-26T11:02:28;94323.25;;;18.24;31.97
11347;BME280;5728;42.722;23.258;2023-03-26T11:05:07;94332.56;;;18.80;31.31
11347;BME280;5728;42.722;23.258;2023-03-26T11:07:48;94326.13;;;18.20;32.19
11347;BME280;5728;42.722;23.258;2023-03-26T11:10:34;94324.16;;;18.58;31.47
11347;BME280;5728;42.722;23.258;2023-03-26T11:13:14;94331.94;;;18.59;32.07
11347;BME280;5728;42.722;23.258;2023-03-26T11:15:49;94326.13;;;18.70;30.90
11347;BME280;5728;42.722;23.258;2023-03-26T11:18:20;94325.09;;;18.39;30.67
11347;BME280;5728;42.722;23.258;2023-03-26T11:20:55;94304.41;;;19.29;30.75
11347;BME280;5728;42.722;23.258;2023-03-26T11:23:33;94313.69;;;18.23;31.42
11347;BME280;5728;42.722;23.258;2023-03-26T11:26:09;94305.19;;;18.18;31.29
11347;BME280;5728;42.722;23.258;2023-03-26T11:28:59;94290.53;;;19.42;30.89
11347;BME280;5728;42.722;23.258;2023-03-26T11:31:38;94287.41;;;19.20;30.66
11347;BME280;5728;42.722;23.258;2023-03-26T11:34:10;94292.16;;;18.82;31.38
11347;BME280;5728;42.722;23.258;2023-03-26T11:36:42;94296.44;;;17.85;31.44
11347;BME280;5728;42.722;23.258;2023-03-26T11:39:15;94281.81;;;18.95;30.36
11347;BME280;5728;42.722;23.258;2023-03-26T11:41:45;94286.38;;;19.23;29.72
11347;BME280;5728;42.722;23.258;2023-03-26T11:44:19;94268.41;;;19.15;30.12
11347;BME280;5728;42.722;23.258;2023-03-26T11:46:48;94256.19;;;19.89;29.83
11347;BME280;5728;42.722;23.258;2023-03-26T11:49:17;94264.50;;;18.91;30.60
11347;BME280;5728;42.722;23.258;2023-03-26T11:51:46;94259.03;;;19.56;29.03
11347;BME280;5728;42.722;23.258;2023-03-26T11:54:15;94242.19;;;20.47;27.11
11347;BME280;5728;42.722;23.258;2023-03-26T11:56:45;94248.41;;;19.88;28.84
11347;BME280;5728;42.722;23.258;2023-03-26T11:59:14;94253.56;;;20.33;27.19
11347;BME280;5728;42.722;23.258;2023-03-26T12:01:48;94246.63;;;20.02;27.16
11347;BME280;5728;42.722;23.258;2023-03-26T12:04:18;94236.56;;;19.51;28.43
11347;BME280;5728;42.722;23.258;2023-03-26T12:06:53;94233.38;;;19.30;27.38
11347;BME280;5728;42.722;23.258;2023-03-26T12:09:23;94230.31;;;19.67;28.28
11347;BME280;5728;42.722;23.258;2023-03-26T12:11:53;94234.81;;;19.36;27.51
11347;BME280;5728;42.722;23.258;2023-03-26T12:14:25;94224.88;;;20.43;27.08
11347;BME280;5728;42.722;23.258;2023-03-26T12:16:59;94221.94;;;20.47;26.74
11347;BME280;5728;42.722;23.258;2023-03-26T12:19:26;94210.22;;;20.39;26.99
11347;BME280;5728;42.722;23.258;2023-03-26T12:21:53;94204.81;;;20.12;26.44
11347;BME280;5728;42.722;23.258;2023-03-26T12:24:26;94207.78;;;19.63;27.45
11347;BME280;5728;42.722;23.258;2023-03-26T12:26:58;94222.81;;;19.76;26.07
11347;BME280;5728;42.722;23.258;2023-03-26T12:29:27;94209.00;;;19.72;26.09
11347;BME280;5728;42.722;23.258;2023-03-26T12:32:02;94194.69;;;20.34;25.25
11347;BME280;5728;42.722;23.258;2023-03-26T12:34:31;94194.34;;;19.82;24.03
11347;BME280;5728;42.722;23.258;2023-03-26T12:37:01;94185.81;;;20.07;25.53
11347;BME280;5728;42.722;23.258;2023-03-26T12:39:32;94174.53;;;20.88;24.50
11347;BME280;5728;42.722;23.258;2023-03-26T12:42:01;94178.44;;;20.68;24.86
11347;BME280;5728;42.722;23.258;2023-03-26T12:44:34;94180.59;;;20.76;24.00
11347;BME280;5728;42.722;23.258;2023-03-26T12:47:13;94172.34;;;19.69;24.05
11347;BME280;5728;42.722;23.258;2023-03-26T12:49:42;94169.44;;;20.58;24.25
11347;BME280;5728;42.722;23.258;2023-03-26T12:52:46;94170.19;;;20.60;23.38
11347;BME280;5728;42.722;23.258;2023-03-26T12:55:38;94161.78;;;19.41;23.77
11347;BME280;5728;42.722;23.258;2023-03-26T12:58:19;94162.53;;;19.43;23.50
11347;BME280;5728;42.722;23.258;2023-03-26T13:00:57;94177.34;;;18.69;23.64
11347;BME280;5728;42.722;23.258;2023-03-26T13:03:47;94160.69;;;19.29;22.72
11347;BME280;5728;42.722;23.258;2023-03-26T13:06:30;94165.81;;;19.76;21.91
11347;BME280;5728;42.722;23.258;2023-03-26T13:09:15;94173.28;;;19.08;22.88
11347;BME280;5728;42.722;23.258;2023-03-26T13:11:57;94164.78;;;19.79;22.16
11347;BME280;5728;42.722;23.258;2023-03-26T13:14:54;94148.38;;;19.59;22.58
11347;BME280;5728;42.722;23.258;2023-03-26T13:17:25;94148.44;;;19.44;22.58
11347;BME280;5728;42.722;23.258;2023-03-26T13:20:02;94146.59;;;19.60;23.83
11347;BME280;5728;42.722;23.258;2023-03-26T13:22:40;94140.88;;;20.38;23.06
11347;BME280;5728;42.722;23.258;2023-03-26T13:25:20;94149.78;;;20.64;22.88
11347;BME280;5728;42.722;23.258;2023-03-26T13:28:02;94153.47;;;20.47;23.46
11347;BME280;5728;42.722;23.258;2023-03-26T13:30:34;94152.03;;;18.97;23.87
11347;BME280;5728;42.722;23.258;2023-03-26T13:33:17;94146.88;;;19.55;23.99
11347;BME280;5728;42.722;23.258;2023-03-26T13:35:51;94140.22;;;19.64;24.77
11347;BME280;5728;42.722;23.258;2023-03-26T13:38:28;94136.38;;;19.55;24.40
11347;BME280;5728;42.722;23.258;2023-03-26T13:41:03;94137.69;;;20.05;23.95
11347;BME280;5728;42.722;23.258;2023-03-26T13:43:45;94150.53;;;19.67;24.29
11347;BME280;5728;42.722;23.258;2023-03-26T13:46:23;94137.13;;;20.28;24.10
11347;BME280;5728;42.722;23.258;2023-03-26T13:48:53;94129.88;;;19.31;24.99
11347;BME280;5728;42.722;23.258;2023-03-26T13:51:24;94140.50;;;19.30;23.88
11347;BME280;5728;42.722;23.258;2023-03-26T13:53:57;94129.75;;;18.89;23.55
11347;BME280;5728;42.722;23.258;2023-03-26T13:56:29;94126.59;;;19.28;23.17
11347;BME280;5728;42.722;23.258;2023-03-26T13:59:03;94120.19;;;20.32;22.44
11347;BME280;5728;42.722;23.258;2023-03-26T14:01:34;94131.75;;;20.29;22.81